createdAt,value
2018-11-22T12:17:55.121Z,31.37
2018-11-22T12:20:26.832Z,31.63
2018-11-22T12:22:58.730Z,30.30
2018-11-22T12:25:30.598Z,28.97
2018-11-22T12:28:02.970Z,33.37
2018-11-22T12:30:35.386Z,36.53
2018-11-22T12:33:37.667Z,34.90
2018-11-22T12:36:14.478Z,29.97
2018-11-22T12:38:47.414Z,30.33
2018-11-22T12:41:19.334Z,30.40
2018-11-22T12:43:50.792Z,29.97
2018-11-22T12:46:22.758Z,28.80
2018-11-22T12:48:54.327Z,31.23
2018-11-22T12:51:25.648Z,29.90
2018-11-22T12:53:57.904Z,37.97
2018-11-22T12:56:29.637Z,32.10
2018-11-22T12:59:01.134Z,28.63
2018-11-22T13:01:32.979Z,29.77
2018-11-22T13:04:04.286Z,27.23
2018-11-22T13:06:35.905Z,29.53
2018-11-22T13:09:09.992Z,27.20
2018-11-22T13:11:41.750Z,29.20
2018-11-22T13:14:14.057Z,26.70
2018-11-22T13:16:45.279Z,27.17
2018-11-22T13:19:17.364Z,27.57
2018-11-22T13:21:48.909Z,27.30
2018-11-22T13:24:21.166Z,25.53
2018-11-22T13:26:53.598Z,27.27
2018-11-22T13:29:25.175Z,28.10
2018-11-22T13:31:56.876Z,28.87
2018-11-22T13:34:28.637Z,27.63
2018-11-22T13:37:00.195Z,26.10
2018-11-22T13:39:31.979Z,26.87
2018-11-22T13:42:03.482Z,26.27
2018-11-22T13:44:35.497Z,27.03
2018-11-22T13:47:06.901Z,28.17
2018-11-22T13:49:38.310Z,30.83
2018-11-22T13:52:10.905Z,32.53
2018-11-22T13:54:42.296Z,31.40
2018-11-22T13:57:14.209Z,31.63
2018-11-22T13:59:45.915Z,28.23
2018-11-22T14:02:19.128Z,29.97
2018-11-22T14:04:50.506Z,33.93
2018-11-22T14:07:22.182Z,39.43
2018-11-22T14:09:57.872Z,31.00
2018-11-22T14:12:29.000Z,30.73
2018-11-22T14:15:00.526Z,31.27
2018-11-22T14:17:31.750Z,31.50
2018-11-22T14:20:03.152Z,29.53
2018-11-22T14:22:34.364Z,29.20
2018-11-22T14:25:06.319Z,28.80
2018-11-22T14:27:38.513Z,28.40
2018-11-22T14:30:12.658Z,26.47
2018-11-22T14:32:44.519Z,25.67
2018-11-22T14:35:17.085Z,25.43
2018-11-22T14:37:48.243Z,25.83
2018-11-22T14:40:24.507Z,26.17
2018-11-22T14:42:56.387Z,23.97
2018-11-22T14:45:28.465Z,24.77
2018-11-22T14:48:01.074Z,26.67
2018-11-22T14:50:40.711Z,26.87
2018-11-22T14:53:18.178Z,29.43
2018-11-22T14:55:49.678Z,31.73
2018-11-22T14:58:21.094Z,31.53
2018-11-22T15:00:52.640Z,30.20
2018-11-22T15:03:24.110Z,31.43
2018-11-22T15:05:55.330Z,33.57
2018-11-22T15:08:26.567Z,31.73
2018-11-22T15:10:58.106Z,32.27
2018-11-22T15:13:29.652Z,29.43
2018-11-22T15:16:01.151Z,26.37
2018-11-22T15:18:32.483Z,25.27
2018-11-22T15:21:04.247Z,22.73
2018-11-22T15:23:36.111Z,24.00
2018-11-22T15:26:07.579Z,26.33
2018-11-22T15:28:39.293Z,24.90
2018-11-22T15:31:10.292Z,25.53
2018-11-22T15:33:42.592Z,24.47
2018-11-22T15:36:14.248Z,24.90
2018-11-22T15:38:46.110Z,26.40
2018-11-22T15:41:17.444Z,23.93
2018-11-22T15:43:48.761Z,24.63
2018-11-22T15:46:20.533Z,26.17
2018-11-22T15:48:52.121Z,28.27
2018-11-22T15:51:24.803Z,24.43
2018-11-22T15:53:57.473Z,24.27
2018-11-22T15:56:29.572Z,22.50
2018-11-22T15:59:01.019Z,46.40
2018-11-22T16:01:32.572Z,32.77
2018-11-22T16:04:04.456Z,24.50
2018-11-22T16:06:36.069Z,25.63
2018-11-22T16:09:10.857Z,26.03
2018-11-22T16:11:42.879Z,29.07
2018-11-22T16:14:14.519Z,24.57
2018-11-22T16:16:45.721Z,27.37
2018-11-22T16:19:17.487Z,25.73
2018-11-22T16:21:49.286Z,28.03
2018-11-22T16:24:20.592Z,27.27
2018-11-22T16:26:52.043Z,28.17
2018-11-22T16:29:23.499Z,27.80
2018-11-22T16:31:54.825Z,32.07
2018-11-22T16:34:26.172Z,28.90
2018-11-22T16:36:57.627Z,31.73
2018-11-22T16:39:29.001Z,30.07
2018-11-22T16:42:00.497Z,33.10
2018-11-22T16:44:32.080Z,32.03
2018-11-22T16:47:03.515Z,33.17
2018-11-22T16:49:35.046Z,34.27
2018-11-22T16:52:06.626Z,34.70
2018-11-22T16:54:38.657Z,31.73
2018-11-22T16:57:10.139Z,30.47
2018-11-22T16:59:41.558Z,29.33
2018-11-22T17:02:13.126Z,26.23
2018-11-22T17:04:44.860Z,31.23
2018-11-22T17:07:16.624Z,30.23
2018-11-22T17:09:48.067Z,27.07
2018-11-22T17:12:19.444Z,28.40
2018-11-22T17:14:51.425Z,30.63
2018-11-22T17:17:22.903Z,28.67
2018-11-22T17:19:54.639Z,29.37
2018-11-22T17:22:25.994Z,30.97
2018-11-22T17:24:57.522Z,29.60
2018-11-22T17:27:29.099Z,32.27
2018-11-22T17:30:00.515Z,32.57
2018-11-22T17:32:31.809Z,31.20
2018-11-22T17:35:03.090Z,33.13
2018-11-22T17:37:35.697Z,33.33
2018-11-22T17:40:16.122Z,32.20
2018-11-22T17:42:48.237Z,33.60
2018-11-22T17:45:23.281Z,32.20
2018-11-22T17:47:54.661Z,31.43
2018-11-22T17:50:29.630Z,32.37
2018-11-22T17:53:01.409Z,33.00
2018-11-22T17:55:33.369Z,33.27
2018-11-22T17:58:05.114Z,35.40
2018-11-22T18:00:40.187Z,35.97
2018-11-22T18:03:12.003Z,34.73
2018-11-22T18:05:43.463Z,35.93
2018-11-22T18:08:15.099Z,34.43
2018-11-22T18:10:46.396Z,56.50
2018-11-22T18:13:18.313Z,34.10
2018-11-22T18:15:54.705Z,35.13
2018-11-22T18:18:27.549Z,33.67
2018-11-22T18:20:59.095Z,36.07
2018-11-22T18:23:30.798Z,39.03
2018-11-22T18:26:02.217Z,38.77
2018-11-22T18:28:33.578Z,42.07
2018-11-22T18:31:05.292Z,44.60
2018-11-22T18:33:37.581Z,46.67
2018-11-22T18:36:09.003Z,50.87
2018-11-22T18:38:40.574Z,58.77
2018-11-22T18:41:12.147Z,52.10
2018-11-22T18:43:43.619Z,48.57
2018-11-22T18:46:14.991Z,73.43
2018-11-22T18:48:46.324Z,68.47
2018-11-22T18:51:17.891Z,122.17
2018-11-22T18:53:49.639Z,77.80
2018-11-22T18:56:21.087Z,59.63
2018-11-22T18:58:53.186Z,69.10
2018-11-22T19:01:24.975Z,119.47
2018-11-22T19:03:56.618Z,109.17
2018-11-22T19:06:29.283Z,101.43
2018-11-22T19:09:00.906Z,109.00
2018-11-22T19:11:32.534Z,74.80
2018-11-22T19:14:04.127Z,59.17
2018-11-22T19:16:35.374Z,64.83
2018-11-22T19:19:07.019Z,97.00
2018-11-22T19:21:41.112Z,95.57
2018-11-22T19:24:10.353Z,58.90
2018-11-22T19:26:42.175Z,56.43
2018-11-22T19:29:13.718Z,51.83
2018-11-22T19:31:45.170Z,62.20
2018-11-22T19:34:16.458Z,63.17
2018-11-22T19:36:47.992Z,51.43
2018-11-22T19:39:19.543Z,55.27
2018-11-22T19:41:51.062Z,63.70
2018-11-22T19:44:22.632Z,62.43
2018-11-22T19:46:53.926Z,61.03
2018-11-22T19:49:25.453Z,52.43
2018-11-22T19:51:57.478Z,42.27
2018-11-22T19:54:29.329Z,50.37
2018-11-22T19:57:01.135Z,47.43
2018-11-22T19:59:33.823Z,55.33
2018-11-22T20:02:05.579Z,58.90
2018-11-22T20:04:36.803Z,53.13
2018-11-22T20:07:08.548Z,52.77
2018-11-22T20:09:40.262Z,47.07
2018-11-22T20:12:12.298Z,48.43
2018-11-22T20:14:44.972Z,43.80
2018-11-22T20:17:16.248Z,40.43
2018-11-22T20:19:47.763Z,45.90
2018-11-22T20:22:19.609Z,43.03
2018-11-22T20:24:51.464Z,44.73
2018-11-22T20:27:24.210Z,42.63
2018-11-22T20:29:55.547Z,44.20
2018-11-22T20:32:27.957Z,46.50
2018-11-22T20:34:59.615Z,45.63
2018-11-22T20:37:31.053Z,40.20
2018-11-22T20:40:02.423Z,53.07
2018-11-22T20:42:33.837Z,42.23
2018-11-22T20:45:05.700Z,45.00
2018-11-22T20:47:37.593Z,43.37
2018-11-22T20:50:12.043Z,44.07
2018-11-22T20:52:43.935Z,49.33
2018-11-22T20:55:19.900Z,45.93
2018-11-22T20:57:52.771Z,46.53
2018-11-22T21:00:28.906Z,50.10
2018-11-22T21:03:00.861Z,51.07
2018-11-22T21:05:33.355Z,47.03
2018-11-22T21:08:04.889Z,44.30
2018-11-22T21:10:36.373Z,47.40
2018-11-22T21:13:08.004Z,51.03
2018-11-22T21:15:39.512Z,45.07
2018-11-22T21:18:11.018Z,48.07
2018-11-22T21:20:42.927Z,46.33
2018-11-22T21:23:14.601Z,45.20
2018-11-22T21:25:46.517Z,86.60
2018-11-22T21:28:18.270Z,48.07
2018-11-22T21:30:50.235Z,48.90
2018-11-22T21:33:21.838Z,47.00
2018-11-22T21:35:53.676Z,57.23
2018-11-22T21:38:25.685Z,48.63
2018-11-22T21:40:57.333Z,46.83
2018-11-22T21:43:29.670Z,45.03
2018-11-22T21:46:01.373Z,45.30
2018-11-22T21:48:32.945Z,44.87
2018-11-22T21:51:04.802Z,44.27
2018-11-22T21:53:36.165Z,45.33
2018-11-22T21:56:07.911Z,41.40
2018-11-22T21:58:39.416Z,44.37
2018-11-22T22:01:11.152Z,44.00
2018-11-22T22:03:42.458Z,43.33
2018-11-22T22:06:14.270Z,45.07
2018-11-22T22:08:45.511Z,42.23
2018-11-22T22:11:17.021Z,72.77
2018-11-22T22:13:48.514Z,58.97
2018-11-22T22:16:19.915Z,44.77
2018-11-22T22:18:51.548Z,44.67
2018-11-22T22:21:22.938Z,46.37
2018-11-22T22:23:54.720Z,45.80
2018-11-22T22:26:26.167Z,45.03
2018-11-22T22:28:57.552Z,44.90
2018-11-22T22:31:29.070Z,49.03
2018-11-22T22:34:01.356Z,50.10
2018-11-22T22:36:32.688Z,42.77
2018-11-22T22:39:05.395Z,42.10
2018-11-22T22:41:37.149Z,36.47
2018-11-22T22:44:08.933Z,36.17
2018-11-22T22:46:40.567Z,36.07
2018-11-22T22:49:12.062Z,37.30
2018-11-22T22:51:43.891Z,38.50
2018-11-22T22:54:15.530Z,44.67
2018-11-22T22:56:47.139Z,44.07
2018-11-22T22:59:18.659Z,42.50
2018-11-22T23:01:50.771Z,43.10
2018-11-22T23:04:22.207Z,41.83
2018-11-22T23:06:53.824Z,44.67
2018-11-22T23:09:25.155Z,39.27
2018-11-22T23:11:56.744Z,38.20
2018-11-22T23:14:28.431Z,37.87
2018-11-22T23:17:00.411Z,40.43
2018-11-22T23:19:32.149Z,42.07
2018-11-22T23:22:03.669Z,39.63
2018-11-22T23:24:35.285Z,36.40
2018-11-22T23:27:06.853Z,38.40
2018-11-22T23:29:38.102Z,37.07
2018-11-22T23:32:09.514Z,37.70
2018-11-22T23:34:41.210Z,38.67
2018-11-22T23:37:13.255Z,36.77
2018-11-22T23:39:44.727Z,37.27
2018-11-22T23:42:16.184Z,37.13
2018-11-22T23:44:47.806Z,37.63
2018-11-22T23:47:19.459Z,42.90
2018-11-22T23:49:50.813Z,49.17
2018-11-22T23:52:22.109Z,48.97
2018-11-22T23:54:54.210Z,52.80
2018-11-22T23:57:26.206Z,46.23
2018-11-22T23:59:57.909Z,49.07
